createdAt,value
2023-01-23T00:00:48.089Z,35.83
2023-01-23T00:02:21.473Z,41.58
2023-01-23T00:03:55.509Z,34.92
2023-01-23T00:05:33.903Z,36.65
2023-01-23T00:07:07.323Z,37.33
2023-01-23T00:08:40.151Z,39.42
2023-01-23T00:10:13.756Z,40.57
2023-01-23T00:11:47.123Z,39.20
2023-01-23T00:13:21.861Z,42.07
2023-01-23T00:14:55.209Z,41.43
2023-01-23T00:16:30.856Z,41.97
2023-01-23T00:18:04.426Z,40.15
2023-01-23T00:19:37.788Z,41.88
2023-01-23T00:21:12.046Z,40.67
2023-01-23T00:22:45.572Z,38.05
2023-01-23T00:24:19.001Z,37.20
2023-01-23T00:25:51.351Z,38.70
2023-01-23T00:27:24.731Z,38.63
2023-01-23T00:28:58.618Z,39.78
2023-01-23T00:30:32.004Z,40.60
2023-01-23T00:32:05.576Z,37.77
2023-01-23T00:33:38.953Z,46.13
2023-01-23T00:35:12.346Z,43.37
2023-01-23T00:36:46.342Z,37.58
2023-01-23T00:38:18.757Z,42.22
2023-01-23T00:39:52.823Z,41.57
2023-01-23T00:41:25.689Z,41.58
2023-01-23T00:42:59.971Z,39.23
2023-01-23T00:44:35.002Z,44.93
2023-01-23T00:46:07.430Z,44.43
2023-01-23T00:47:40.826Z,43.40
2023-01-23T00:49:14.186Z,47.40
2023-01-23T00:50:50.606Z,42.10
2023-01-23T00:52:24.020Z,46.90
2023-01-23T00:53:57.546Z,41.87
2023-01-23T00:55:30.878Z,44.88
2023-01-23T00:57:04.264Z,43.87
2023-01-23T00:58:37.859Z,45.42
2023-01-23T01:00:13.541Z,44.00
2023-01-23T01:01:47.303Z,43.50
2023-01-23T01:03:20.510Z,41.60
2023-01-23T01:04:53.902Z,42.90
2023-01-23T01:06:29.772Z,39.60
2023-01-23T01:08:03.974Z,43.07
2023-01-23T01:09:36.542Z,39.03
2023-01-23T01:11:09.903Z,45.07
2023-01-23T01:12:43.704Z,47.63
2023-01-23T01:14:16.294Z,41.20
2023-01-23T01:15:51.689Z,43.63
2023-01-23T01:17:25.262Z,40.50
2023-01-23T01:18:58.631Z,43.60
2023-01-23T01:20:32.237Z,42.20
2023-01-23T01:22:05.608Z,42.43
2023-01-23T01:23:39.074Z,40.73
2023-01-23T01:25:12.678Z,42.40
2023-01-23T01:26:46.048Z,40.07
2023-01-23T01:28:19.491Z,39.70
2023-01-23T01:29:54.493Z,36.97
2023-01-23T01:31:29.479Z,38.53
2023-01-23T01:33:02.896Z,38.83
2023-01-23T01:34:36.997Z,38.60
2023-01-23T01:36:10.163Z,46.13
2023-01-23T01:37:44.771Z,36.13
2023-01-23T01:39:18.128Z,39.40
2023-01-23T01:40:51.691Z,36.87
2023-01-23T01:42:28.248Z,37.10
2023-01-23T01:44:01.627Z,39.70
2023-01-23T01:45:53.645Z,35.57
2023-01-23T01:47:28.988Z,40.33
2023-01-23T01:49:05.440Z,37.43
2023-01-23T01:50:37.953Z,35.47
2023-01-23T01:52:12.646Z,34.87
2023-01-23T01:53:48.307Z,36.05
2023-01-23T01:55:21.683Z,43.17
2023-01-23T01:56:57.281Z,35.43
2023-01-23T01:58:30.091Z,38.83
2023-01-23T02:00:07.747Z,36.87
2023-01-23T02:01:49.204Z,39.50
2023-01-23T02:03:24.045Z,40.20
2023-01-23T02:05:00.418Z,43.27
2023-01-23T02:06:32.852Z,36.43
2023-01-23T02:08:08.407Z,38.33
2023-01-23T02:09:42.487Z,38.17
2023-01-23T02:11:18.506Z,40.67
2023-01-23T02:12:52.714Z,40.00
2023-01-23T02:14:26.081Z,40.17
2023-01-23T02:15:59.388Z,38.47
2023-01-23T02:17:33.165Z,36.87
2023-01-23T02:19:14.054Z,40.80
2023-01-23T02:20:48.469Z,37.50
2023-01-23T02:22:32.743Z,36.70
2023-01-23T02:24:19.622Z,35.73
2023-01-23T02:25:59.929Z,36.97
2023-01-23T02:27:34.550Z,36.07
2023-01-23T02:29:09.197Z,35.53
2023-01-23T02:30:51.608Z,38.70
2023-01-23T02:32:28.145Z,34.47
2023-01-23T02:34:01.925Z,36.40
2023-01-23T02:35:34.451Z,41.57
2023-01-23T02:37:14.490Z,39.03
2023-01-23T02:38:54.205Z,37.03
2023-01-23T02:40:32.196Z,39.13
2023-01-23T02:42:08.547Z,37.15
2023-01-23T02:43:49.556Z,39.13
2023-01-23T02:45:22.947Z,41.17
2023-01-23T02:46:57.566Z,40.30
2023-01-23T02:48:31.886Z,46.37
2023-01-23T02:50:07.388Z,47.93
2023-01-23T02:51:41.228Z,47.30
2023-01-23T02:53:14.758Z,49.87
2023-01-23T02:54:48.130Z,39.87
2023-01-23T02:56:21.290Z,46.80
2023-01-23T02:58:16.908Z,46.17
2023-01-23T03:00:08.143Z,43.43
2023-01-23T03:01:42.438Z,49.93
2023-01-23T03:03:16.645Z,41.20
2023-01-23T03:04:50.021Z,46.30
2023-01-23T03:06:22.606Z,47.43
2023-01-23T03:07:58.159Z,42.75
2023-01-23T03:09:31.637Z,44.43
2023-01-23T03:11:06.270Z,49.03
2023-01-23T03:12:43.335Z,48.05
2023-01-23T03:14:18.780Z,49.83
2023-01-23T03:15:52.973Z,47.20
2023-01-23T03:17:26.536Z,46.05
2023-01-23T03:19:01.835Z,46.15
2023-01-23T03:20:39.794Z,41.97
2023-01-23T03:22:13.239Z,46.70
2023-01-23T03:23:47.743Z,44.38
2023-01-23T03:25:21.093Z,45.50
2023-01-23T03:26:53.509Z,46.20
2023-01-23T03:28:48.537Z,43.70
2023-01-23T03:30:25.525Z,44.85
2023-01-23T03:31:58.054Z,46.30
2023-01-23T03:33:31.451Z,43.73
2023-01-23T03:35:04.849Z,45.47
2023-01-23T03:36:38.979Z,44.30
2023-01-23T03:38:14.323Z,40.53
2023-01-23T03:40:05.417Z,41.50
2023-01-23T03:41:41.849Z,41.27
2023-01-23T03:43:15.280Z,43.33
2023-01-23T03:44:54.241Z,43.38
2023-01-23T03:46:31.273Z,40.60
2023-01-23T03:48:04.699Z,40.33
2023-01-23T03:49:37.473Z,42.43
2023-01-23T03:51:10.936Z,36.97
2023-01-23T03:52:44.417Z,40.50
2023-01-23T03:54:17.836Z,38.03
2023-01-23T03:55:51.387Z,37.47
2023-01-23T03:57:25.557Z,40.67
2023-01-23T03:59:04.773Z,37.95
2023-01-23T04:00:38.927Z,44.20
2023-01-23T04:02:15.453Z,38.93
2023-01-23T04:03:49.019Z,43.23
2023-01-23T04:05:22.669Z,38.75
2023-01-23T04:06:56.057Z,37.33
2023-01-23T04:08:29.734Z,41.17
2023-01-23T04:10:03.451Z,39.13
2023-01-23T04:11:36.814Z,39.33
2023-01-23T04:13:10.906Z,41.40
2023-01-23T04:14:44.916Z,37.80
2023-01-23T04:16:22.072Z,38.20
2023-01-23T04:17:56.801Z,35.10
2023-01-23T04:19:31.938Z,40.38
2023-01-23T04:21:05.501Z,37.00
2023-01-23T04:22:38.891Z,42.63
2023-01-23T04:24:12.315Z,37.47
2023-01-23T04:25:45.681Z,40.70
2023-01-23T04:27:20.481Z,39.07
2023-01-23T04:28:53.901Z,41.00
2023-01-23T04:30:26.329Z,45.90
2023-01-23T04:31:59.842Z,43.93
2023-01-23T04:33:36.169Z,44.37
2023-01-23T04:35:10.175Z,43.93
2023-01-23T04:36:46.899Z,42.88
2023-01-23T04:38:19.383Z,46.00
2023-01-23T04:39:53.129Z,41.10
2023-01-23T04:41:27.619Z,38.67
2023-01-23T04:43:08.593Z,43.17
2023-01-23T04:44:50.287Z,38.33
2023-01-23T04:46:55.726Z,42.13
2023-01-23T04:48:30.501Z,42.50
2023-01-23T04:50:05.495Z,39.27
2023-01-23T04:51:41.100Z,44.60
2023-01-23T04:53:15.104Z,46.27
2023-01-23T04:54:49.509Z,45.43
2023-01-23T04:56:23.005Z,43.83
2023-01-23T04:57:57.017Z,43.97
2023-01-23T04:59:32.567Z,40.70
2023-01-23T05:01:06.050Z,44.30
2023-01-23T05:02:41.013Z,40.38
2023-01-23T05:04:13.994Z,45.37
2023-01-23T05:05:49.066Z,42.23
2023-01-23T05:07:22.458Z,42.03
2023-01-23T05:09:10.471Z,44.80
2023-01-23T05:10:46.894Z,53.37
2023-01-23T05:12:23.766Z,43.23
2023-01-23T05:13:58.604Z,47.90
2023-01-23T05:15:32.446Z,42.87
2023-01-23T05:17:05.841Z,47.27
2023-01-23T05:18:43.159Z,43.00
2023-01-23T05:20:16.757Z,43.10
2023-01-23T05:21:50.981Z,41.65
2023-01-23T05:23:27.360Z,39.33
2023-01-23T05:25:00.638Z,39.78
2023-01-23T05:26:37.996Z,41.73
2023-01-23T05:28:11.859Z,40.37
2023-01-23T05:29:50.264Z,44.20
2023-01-23T05:31:30.530Z,37.83
2023-01-23T05:33:32.924Z,39.57
2023-01-23T05:35:06.630Z,38.47
2023-01-23T05:36:40.048Z,37.27
2023-01-23T05:38:15.285Z,36.70
2023-01-23T05:39:50.072Z,38.60
2023-01-23T05:41:25.716Z,37.93
2023-01-23T05:43:19.301Z,37.83
2023-01-23T05:45:11.528Z,40.50
2023-01-23T05:46:48.263Z,37.50
2023-01-23T05:48:21.667Z,40.27
2023-01-23T05:49:55.107Z,40.47
2023-01-23T05:51:33.870Z,40.63
2023-01-23T05:53:07.500Z,35.07
2023-01-23T05:54:44.237Z,36.97
2023-01-23T05:56:19.418Z,37.43
2023-01-23T05:58:15.098Z,37.30
2023-01-23T06:00:07.941Z,37.10
2023-01-23T06:02:01.620Z,40.92
2023-01-23T06:03:58.282Z,40.17
2023-01-23T06:05:41.921Z,41.83
2023-01-23T06:07:22.517Z,43.60
2023-01-23T06:09:00.605Z,46.20
2023-01-23T06:10:35.381Z,40.27
2023-01-23T06:12:09.603Z,45.17
2023-01-23T06:13:42.996Z,43.85
2023-01-23T06:15:16.482Z,45.55
2023-01-23T06:16:51.157Z,47.07
2023-01-23T06:18:25.165Z,45.97
2023-01-23T06:20:00.333Z,46.15
2023-01-23T06:21:34.132Z,43.92
2023-01-23T06:23:08.196Z,44.40
2023-01-23T06:24:43.097Z,42.88
2023-01-23T06:26:17.849Z,45.73
2023-01-23T06:27:52.949Z,45.30
2023-01-23T06:29:27.481Z,46.43
2023-01-23T06:31:04.243Z,43.28
2023-01-23T06:32:54.612Z,40.60
2023-01-23T06:34:34.279Z,40.87
2023-01-23T06:36:10.171Z,42.20
2023-01-23T06:37:44.577Z,43.50
2023-01-23T06:39:21.884Z,42.50
2023-01-23T06:40:56.973Z,41.88
2023-01-23T06:42:36.099Z,36.80
2023-01-23T06:44:10.914Z,36.63
2023-01-23T06:45:44.773Z,44.07
2023-01-23T06:47:19.044Z,40.20
2023-01-23T06:48:57.349Z,45.22
2023-01-23T06:50:30.779Z,39.17
2023-01-23T06:52:04.144Z,38.03
2023-01-23T06:53:37.539Z,37.27
2023-01-23T06:55:13.239Z,40.70
2023-01-23T06:56:49.322Z,41.17
2023-01-23T06:58:24.050Z,41.53
2023-01-23T06:59:57.440Z,36.80
2023-01-23T07:01:30.994Z,41.43
2023-01-23T07:03:27.676Z,40.63
2023-01-23T07:05:01.077Z,42.53
2023-01-23T07:06:34.542Z,41.00
2023-01-23T07:08:08.229Z,39.03
2023-01-23T07:09:41.658Z,36.63
2023-01-23T07:11:20.492Z,40.00
2023-01-23T07:12:54.185Z,37.33
2023-01-23T07:14:28.925Z,38.77
2023-01-23T07:16:03.757Z,36.67
2023-01-23T07:17:37.251Z,37.67
2023-01-23T07:19:10.635Z,39.22
2023-01-23T07:20:46.102Z,35.97
2023-01-23T07:22:19.648Z,38.37
2023-01-23T07:23:53.008Z,37.00
2023-01-23T07:25:26.914Z,39.90
2023-01-23T07:27:00.490Z,38.17
2023-01-23T07:28:33.849Z,40.90
2023-01-23T07:30:09.500Z,43.07
2023-01-23T07:31:42.883Z,43.13
2023-01-23T07:33:16.291Z,40.77
2023-01-23T07:34:49.686Z,43.70
2023-01-23T07:36:23.042Z,44.30
2023-01-23T07:37:56.413Z,49.23
2023-01-23T07:39:29.787Z,48.17
2023-01-23T07:41:03.228Z,49.07
2023-01-23T07:42:36.597Z,43.83
2023-01-23T07:44:10.089Z,48.77
2023-01-23T07:45:45.031Z,46.03
2023-01-23T07:47:18.467Z,47.17
2023-01-23T07:48:51.831Z,45.97
2023-01-23T07:50:25.387Z,41.13
2023-01-23T07:51:58.764Z,48.10
2023-01-23T07:53:32.400Z,46.78
2023-01-23T07:55:06.719Z,45.23
2023-01-23T07:56:40.282Z,49.00
2023-01-23T07:58:13.641Z,44.60
2023-01-23T07:59:47.099Z,48.23
2023-01-23T08:01:21.816Z,48.97
2023-01-23T08:02:55.223Z,43.17
2023-01-23T08:04:28.951Z,45.73
2023-01-23T08:06:02.339Z,46.10
2023-01-23T08:07:35.716Z,42.33
2023-01-23T08:09:09.116Z,43.33
2023-01-23T08:10:42.633Z,46.53
2023-01-23T08:12:15.985Z,45.97
2023-01-23T08:13:50.594Z,45.57
2023-01-23T08:15:23.987Z,45.00
2023-01-23T08:16:58.840Z,50.90
2023-01-23T08:18:32.544Z,48.67
2023-01-23T08:20:06.427Z,43.83
2023-01-23T08:21:39.784Z,45.22
2023-01-23T08:23:13.152Z,45.28
2023-01-23T08:24:47.235Z,42.10
2023-01-23T08:26:20.609Z,45.20
2023-01-23T08:27:53.963Z,45.37
2023-01-23T08:29:27.737Z,43.43
2023-01-23T08:31:03.816Z,44.63
2023-01-23T08:32:40.180Z,43.03
2023-01-23T08:34:13.562Z,44.97
2023-01-23T08:35:50.569Z,46.70
2023-01-23T08:37:24.415Z,85.53
2023-01-23T08:38:57.980Z,67.60
2023-01-23T08:40:31.499Z,49.87
2023-01-23T08:42:05.024Z,53.97
2023-01-23T08:43:38.387Z,55.80
2023-01-23T08:45:12.186Z,76.00
2023-01-23T08:46:46.912Z,85.97
2023-01-23T08:48:22.288Z,65.13
2023-01-23T08:49:55.674Z,60.10
2023-01-23T08:51:29.097Z,53.53
2023-01-23T08:53:02.630Z,52.00
2023-01-23T08:54:36.023Z,52.33
2023-01-23T08:56:10.068Z,56.67
2023-01-23T08:57:43.467Z,51.73
2023-01-23T08:59:16.852Z,57.07
2023-01-23T09:00:50.274Z,63.57
2023-01-23T09:02:23.714Z,50.20
2023-01-23T09:03:58.574Z,49.17
2023-01-23T09:05:32.770Z,47.50
2023-01-23T09:07:06.146Z,48.63
2023-01-23T09:08:39.528Z,48.73
2023-01-23T09:10:13.796Z,49.57
2023-01-23T09:11:47.465Z,48.27
2023-01-23T09:13:20.833Z,51.17
2023-01-23T09:14:54.733Z,45.17
2023-01-23T09:16:28.331Z,46.17
2023-01-23T09:18:01.739Z,42.47
2023-01-23T09:19:36.815Z,40.63
2023-01-23T09:21:11.413Z,40.50
2023-01-23T09:22:44.952Z,43.97
2023-01-23T09:24:18.318Z,41.63
2023-01-23T09:25:51.715Z,38.27
2023-01-23T09:27:25.418Z,43.13
2023-01-23T09:28:58.823Z,42.20
2023-01-23T09:30:32.270Z,39.20
2023-01-23T09:32:05.802Z,39.47
2023-01-23T09:33:39.404Z,41.43
2023-01-23T09:35:14.181Z,43.13
2023-01-23T09:36:47.574Z,39.37
2023-01-23T09:38:21.202Z,44.23
2023-01-23T09:39:54.583Z,42.90
2023-01-23T09:41:29.091Z,43.40
2023-01-23T09:43:05.318Z,41.77
2023-01-23T09:44:39.835Z,46.00
2023-01-23T09:46:20.116Z,47.20
2023-01-23T09:47:55.849Z,50.73
2023-01-23T09:49:32.969Z,48.00
2023-01-23T09:51:13.975Z,50.27
2023-01-23T09:52:50.635Z,48.93
2023-01-23T09:54:37.707Z,47.07
2023-01-23T09:56:16.660Z,45.63
2023-01-23T09:57:52.951Z,47.47
2023-01-23T09:59:29.914Z,47.53
2023-01-23T10:01:03.340Z,42.90
2023-01-23T10:02:36.802Z,43.80
2023-01-23T10:04:12.817Z,42.77
2023-01-23T10:05:49.334Z,44.13
2023-01-23T10:07:29.328Z,44.80
2023-01-23T10:09:13.822Z,43.63
2023-01-23T10:10:55.998Z,40.93
2023-01-23T10:12:34.171Z,38.83
2023-01-23T10:14:17.429Z,42.20
2023-01-23T10:16:02.485Z,42.07
2023-01-23T10:17:39.640Z,40.23
2023-01-23T10:19:19.113Z,43.47
2023-01-23T10:20:55.866Z,39.27
2023-01-23T10:22:36.110Z,37.87
2023-01-23T10:24:26.268Z,39.30
2023-01-23T10:26:00.333Z,41.53
2023-01-23T10:27:35.221Z,39.53
2023-01-23T10:29:14.962Z,41.60
2023-01-23T10:30:49.677Z,74.50
2023-01-23T10:32:25.900Z,143.20
2023-01-23T10:34:05.390Z,78.40
2023-01-23T10:35:42.115Z,72.27
2023-01-23T10:37:17.255Z,244.87
2023-01-23T10:38:56.241Z,55.10
2023-01-23T10:40:47.533Z,198.53
2023-01-23T10:42:23.747Z,82.87
2023-01-23T10:43:58.085Z,42.80
2023-01-23T10:45:31.939Z,35.40
2023-01-23T10:47:06.234Z,39.30
2023-01-23T10:48:42.271Z,36.60
2023-01-23T10:50:15.773Z,37.60
2023-01-23T10:51:50.656Z,34.50
2023-01-23T10:53:24.957Z,34.83
2023-01-23T10:55:00.748Z,37.00
2023-01-23T10:56:34.872Z,33.33
2023-01-23T10:58:24.472Z,35.77
2023-01-23T11:00:00.450Z,36.13
2023-01-23T11:01:35.112Z,33.47
2023-01-23T11:03:28.609Z,32.23
2023-01-23T11:05:02.774Z,33.50
2023-01-23T11:06:36.161Z,36.57
2023-01-23T11:08:24.148Z,34.77
2023-01-23T11:09:58.314Z,34.90
2023-01-23T11:11:33.714Z,33.03
2023-01-23T11:13:07.102Z,32.70
2023-01-23T11:14:40.490Z,35.33
2023-01-23T11:16:15.830Z,33.87
2023-01-23T11:17:49.568Z,33.37
2023-01-23T11:19:24.337Z,33.50
2023-01-23T11:20:57.821Z,32.40
2023-01-23T11:22:32.851Z,35.57
2023-01-23T11:24:11.154Z,34.50
2023-01-23T11:25:45.681Z,35.53
2023-01-23T11:27:24.313Z,34.10
2023-01-23T11:28:57.780Z,38.10
2023-01-23T11:30:40.205Z,35.53
2023-01-23T11:32:15.474Z,32.07
2023-01-23T11:33:53.177Z,36.67
2023-01-23T11:35:29.236Z,41.00
2023-01-23T11:37:06.397Z,38.13
2023-01-23T11:38:51.318Z,39.87
2023-01-23T11:40:25.947Z,35.13
2023-01-23T11:41:59.450Z,39.03
2023-01-23T11:43:34.194Z,39.80
2023-01-23T11:45:14.003Z,38.50
2023-01-23T11:46:56.551Z,35.27
2023-01-23T11:48:35.076Z,34.37
2023-01-23T11:50:23.924Z,36.83
2023-01-23T11:52:01.925Z,34.10
2023-01-23T11:53:43.024Z,35.23
2023-01-23T11:55:28.736Z,35.40
2023-01-23T11:57:04.683Z,41.30
2023-01-23T11:58:50.535Z,35.33
2023-01-23T12:00:26.502Z,33.80
2023-01-23T12:02:07.708Z,34.47
2023-01-23T12:03:59.815Z,35.67
2023-01-23T12:05:45.269Z,35.67
2023-01-23T12:07:21.139Z,36.27
2023-01-23T12:08:59.752Z,36.97
2023-01-23T12:10:38.009Z,38.93
2023-01-23T12:12:17.290Z,39.03
2023-01-23T12:13:58.471Z,35.40
2023-01-23T12:15:37.188Z,36.87
2023-01-23T12:17:20.138Z,37.73
2023-01-23T12:19:02.907Z,34.73
2023-01-23T12:20:43.656Z,36.77
2023-01-23T12:22:18.126Z,38.83
2023-01-23T12:24:03.832Z,35.50
2023-01-23T12:25:38.265Z,36.50
2023-01-23T12:27:15.817Z,35.53
2023-01-23T12:28:59.813Z,34.70
2023-01-23T12:30:51.124Z,36.50
2023-01-23T12:32:34.451Z,33.17
2023-01-23T12:34:13.999Z,35.00
2023-01-23T12:35:49.795Z,39.73
2023-01-23T12:37:31.167Z,39.40
2023-01-23T12:39:08.721Z,32.27
2023-01-23T12:40:43.751Z,35.07
2023-01-23T12:42:20.571Z,37.47
2023-01-23T12:43:58.997Z,36.53
2023-01-23T12:45:32.913Z,37.87
2023-01-23T12:47:07.650Z,35.23
2023-01-23T12:48:43.714Z,36.53
2023-01-23T12:50:21.339Z,34.53
2023-01-23T12:51:57.142Z,33.73
2023-01-23T12:53:33.021Z,35.17
2023-01-23T12:55:09.025Z,35.50
2023-01-23T12:56:42.835Z,38.77
2023-01-23T12:58:17.885Z,32.17
2023-01-23T13:00:00.016Z,35.70
2023-01-23T13:01:42.084Z,35.50
2023-01-23T13:03:23.012Z,35.43
2023-01-23T13:05:01.991Z,41.17
2023-01-23T13:06:43.317Z,37.40
2023-01-23T13:08:22.333Z,34.40
2023-01-23T13:10:07.759Z,34.20
2023-01-23T13:11:44.869Z,37.73
2023-01-23T13:13:19.280Z,39.50
2023-01-23T13:15:13.423Z,39.63
2023-01-23T13:16:49.471Z,37.07
2023-01-23T13:18:24.582Z,37.97
2023-01-23T13:20:30.308Z,38.43
2023-01-23T13:22:04.714Z,39.90
2023-01-23T13:23:38.406Z,37.13
2023-01-23T13:25:14.158Z,37.37
2023-01-23T13:26:47.578Z,38.80
2023-01-23T13:28:35.449Z,38.67
2023-01-23T13:30:36.380Z,34.23
2023-01-23T13:32:23.592Z,37.80
2023-01-23T13:34:10.104Z,35.40
2023-01-23T13:35:56.008Z,36.87
2023-01-23T13:37:52.087Z,39.17
2023-01-23T13:39:27.800Z,42.73
2023-01-23T13:41:21.477Z,39.90
2023-01-23T13:42:54.940Z,35.17
2023-01-23T13:44:40.742Z,39.67
2023-01-23T13:46:21.888Z,41.43
2023-01-23T14:21:02.145Z,55.57
2023-01-23T14:22:37.200Z,51.23
2023-01-23T14:24:26.454Z,49.00
2023-01-23T14:26:00.078Z,52.17
2023-01-23T14:27:51.363Z,52.13
2023-01-23T14:29:27.128Z,59.13
2023-01-23T14:31:01.865Z,51.00
2023-01-23T14:32:35.611Z,54.37
2023-01-23T14:34:18.695Z,59.87
2023-01-23T14:35:52.681Z,60.90
2023-01-23T14:37:26.528Z,104.53
2023-01-23T14:39:02.410Z,126.23
2023-01-23T14:40:49.295Z,104.53
2023-01-23T14:42:25.441Z,70.47
2023-01-23T14:44:00.006Z,81.87
2023-01-23T14:45:34.097Z,76.43
2023-01-23T14:47:08.158Z,92.63
2023-01-23T14:48:43.109Z,74.97
2023-01-23T14:50:19.702Z,68.23
2023-01-23T14:51:57.209Z,87.93
2023-01-23T14:53:30.573Z,87.37
2023-01-23T14:55:08.072Z,78.93
2023-01-23T14:56:42.053Z,69.17
2023-01-23T14:58:17.071Z,67.50
2023-01-23T14:59:50.781Z,73.60
2023-01-23T15:01:24.435Z,64.93
2023-01-23T15:02:57.845Z,68.50
2023-01-23T15:04:32.131Z,66.63
2023-01-23T15:06:08.294Z,66.22
2023-01-23T15:07:45.197Z,69.00
2023-01-23T15:09:19.155Z,70.73
2023-01-23T15:10:55.376Z,68.70
2023-01-23T15:12:29.300Z,67.40
2023-01-23T15:14:03.487Z,68.43
2023-01-23T15:15:36.878Z,68.93
2023-01-23T15:17:15.408Z,67.22
2023-01-23T15:18:53.106Z,75.80
2023-01-23T15:20:30.571Z,71.47
2023-01-23T15:22:07.920Z,75.13
2023-01-23T15:23:42.022Z,80.87
2023-01-23T15:25:28.868Z,80.97
2023-01-23T15:27:08.854Z,78.10
2023-01-23T15:28:43.056Z,75.03
2023-01-23T15:30:35.370Z,72.47
2023-01-23T15:32:17.538Z,79.07
2023-01-23T15:33:50.949Z,80.70
2023-01-23T15:35:24.327Z,76.75
2023-01-23T15:36:59.708Z,81.63
2023-01-23T15:38:33.138Z,67.47
2023-01-23T15:40:17.431Z,76.30
2023-01-23T15:41:52.124Z,75.35
2023-01-23T15:43:27.085Z,71.93
2023-01-23T15:45:01.986Z,73.37
2023-01-23T15:46:35.393Z,68.45
2023-01-23T15:48:08.887Z,67.68
2023-01-23T15:49:42.394Z,65.03
2023-01-23T15:51:16.019Z,70.47
2023-01-23T15:52:50.909Z,63.90
2023-01-23T15:54:26.405Z,71.50
2023-01-23T15:56:01.542Z,67.17
2023-01-23T15:57:35.535Z,71.97
2023-01-23T15:59:14.122Z,68.53
2023-01-23T16:00:47.509Z,65.68
2023-01-23T16:02:30.630Z,72.25
2023-01-23T16:04:05.182Z,72.07
2023-01-23T16:05:39.442Z,69.95
2023-01-23T16:07:18.475Z,65.10
2023-01-23T16:09:00.761Z,69.43
2023-01-23T16:10:39.490Z,70.75
2023-01-23T16:12:15.872Z,70.80
2023-01-23T16:13:49.467Z,71.80
2023-01-23T16:15:24.734Z,69.43
2023-01-23T16:17:04.715Z,69.47
2023-01-23T16:18:45.196Z,69.43
2023-01-23T16:20:19.288Z,73.73
2023-01-23T16:22:03.989Z,67.45
2023-01-23T16:23:47.238Z,71.25
2023-01-23T16:25:34.686Z,70.83
2023-01-23T16:27:18.233Z,74.37
2023-01-23T16:28:52.893Z,77.68
2023-01-23T16:30:29.030Z,74.50
2023-01-23T16:32:03.365Z,77.60
2023-01-23T16:33:36.809Z,71.67
2023-01-23T16:35:10.693Z,72.90
2023-01-23T16:36:44.266Z,73.40
2023-01-23T16:38:21.722Z,72.93
2023-01-23T16:39:55.107Z,74.90
2023-01-23T16:41:28.461Z,77.53
2023-01-23T16:43:03.044Z,82.77
2023-01-23T16:44:36.557Z,84.57
2023-01-23T16:46:11.640Z,82.40
2023-01-23T16:47:45.303Z,78.07
2023-01-23T16:49:18.697Z,72.97
2023-01-23T16:50:53.486Z,74.60
2023-01-23T16:52:27.215Z,73.50
2023-01-23T16:54:05.995Z,78.13
2023-01-23T16:55:46.525Z,74.60
2023-01-23T16:57:21.278Z,74.87
2023-01-23T16:58:54.671Z,73.63
2023-01-23T17:00:34.915Z,73.83
2023-01-23T17:02:15.278Z,74.18
2023-01-23T17:03:52.429Z,72.87
2023-01-23T17:05:25.860Z,66.73
2023-01-23T17:06:59.247Z,66.77
2023-01-23T17:08:32.621Z,67.40
2023-01-23T17:10:06.222Z,66.07
2023-01-23T17:11:40.429Z,60.77
2023-01-23T17:13:14.954Z,69.27
2023-01-23T17:14:48.957Z,67.00
2023-01-23T17:16:27.758Z,64.30
2023-01-23T17:18:02.920Z,67.73
2023-01-23T17:19:37.662Z,64.30
2023-01-23T17:21:15.875Z,64.17
2023-01-23T17:22:49.429Z,66.90
2023-01-23T17:24:22.862Z,66.60
2023-01-23T17:26:00.821Z,66.10
2023-01-23T17:27:44.598Z,66.07
2023-01-23T17:29:19.905Z,61.73
2023-01-23T17:30:54.264Z,63.07
2023-01-23T17:32:30.909Z,66.75
2023-01-23T17:34:05.700Z,62.43
2023-01-23T17:35:39.238Z,62.70
2023-01-23T17:37:14.806Z,62.40
2023-01-23T17:38:48.205Z,59.17
2023-01-23T17:40:22.146Z,67.97
2023-01-23T17:41:55.550Z,60.70
2023-01-23T17:43:29.398Z,65.07
2023-01-23T17:45:02.772Z,64.70
2023-01-23T17:46:39.384Z,65.35
2023-01-23T17:48:14.820Z,63.08
2023-01-23T17:49:54.475Z,60.50
2023-01-23T17:51:28.181Z,57.22
2023-01-23T17:53:01.589Z,59.45
2023-01-23T17:54:34.963Z,66.70
2023-01-23T17:56:08.803Z,98.60
2023-01-23T17:57:42.166Z,155.60
2023-01-23T17:59:15.516Z,69.32
2023-01-23T18:00:50.873Z,67.50
2023-01-23T18:02:27.439Z,60.73
2023-01-23T18:04:00.866Z,58.33
2023-01-23T18:05:35.757Z,61.03
2023-01-23T18:07:11.520Z,65.88
2023-01-23T18:08:45.203Z,62.67
2023-01-23T18:10:19.070Z,58.03
2023-01-23T18:11:54.361Z,62.73
2023-01-23T18:13:32.402Z,63.42
2023-01-23T18:15:10.031Z,65.60
2023-01-23T18:16:45.572Z,63.97
2023-01-23T18:18:22.867Z,63.80
2023-01-23T18:19:56.535Z,62.80
2023-01-23T18:21:31.755Z,60.00
2023-01-23T18:23:05.486Z,59.63
2023-01-23T18:24:39.146Z,56.87
2023-01-23T18:26:20.535Z,59.27
2023-01-23T18:27:55.304Z,62.60
2023-01-23T18:29:40.716Z,62.50
2023-01-23T18:31:18.001Z,58.40
2023-01-23T18:33:01.886Z,56.07
2023-01-23T18:34:39.471Z,58.07
2023-01-23T18:36:31.022Z,59.07
2023-01-23T18:38:10.037Z,59.17
2023-01-23T18:39:53.563Z,61.17
2023-01-23T18:41:27.456Z,55.95
2023-01-23T18:43:08.564Z,55.05
2023-01-23T18:44:43.233Z,57.85
2023-01-23T18:46:17.670Z,58.27
2023-01-23T18:47:51.237Z,55.38
2023-01-23T18:49:32.792Z,56.37
2023-01-23T18:51:09.741Z,57.07
2023-01-23T18:52:47.080Z,57.87
2023-01-23T18:54:25.292Z,56.00
2023-01-23T18:56:05.714Z,58.93
2023-01-23T18:57:45.835Z,55.87
2023-01-23T18:59:24.654Z,58.67
2023-01-23T19:01:00.134Z,57.47
2023-01-23T19:02:37.631Z,61.20
2023-01-23T19:04:14.851Z,57.57
2023-01-23T19:05:47.441Z,55.00
2023-01-23T19:07:21.322Z,55.67
2023-01-23T19:08:56.512Z,57.33
2023-01-23T19:10:40.159Z,59.20
2023-01-23T19:12:28.948Z,55.25
2023-01-23T19:14:09.606Z,58.97
2023-01-23T19:15:46.338Z,54.67
2023-01-23T19:17:25.676Z,57.93
2023-01-23T19:19:14.683Z,54.87
2023-01-23T19:20:51.273Z,53.90
2023-01-23T19:22:25.003Z,61.90
2023-01-23T19:23:59.818Z,59.33
2023-01-23T19:25:34.848Z,61.53
2023-01-23T19:27:12.752Z,87.30
2023-01-23T19:28:46.350Z,84.07
2023-01-23T19:30:20.722Z,71.07
2023-01-23T19:32:09.686Z,68.80
2023-01-23T19:33:43.121Z,67.83
2023-01-23T19:35:16.590Z,60.10
2023-01-23T19:36:49.954Z,58.10
2023-01-23T19:38:23.612Z,60.80
2023-01-23T19:39:57.043Z,79.77
2023-01-23T19:41:38.099Z,68.50
2023-01-23T19:43:15.305Z,62.72
2023-01-23T19:44:48.787Z,63.83
2023-01-23T19:46:23.259Z,61.92
2023-01-23T19:47:56.711Z,64.30
2023-01-23T19:49:30.062Z,56.22
2023-01-23T19:51:03.438Z,56.07
2023-01-23T19:52:36.857Z,57.53
2023-01-23T19:54:13.267Z,52.35
2023-01-23T19:55:46.658Z,53.60
2023-01-23T19:57:21.407Z,58.42
2023-01-23T19:58:56.168Z,61.28
2023-01-23T20:00:30.791Z,59.30
2023-01-23T20:02:04.153Z,59.47
2023-01-23T20:03:37.562Z,61.20
2023-01-23T20:05:11.520Z,62.40
2023-01-23T20:06:45.611Z,63.50
2023-01-23T20:08:19.114Z,63.08
2023-01-23T20:09:52.469Z,64.13
2023-01-23T20:11:25.831Z,63.28
2023-01-23T20:13:00.734Z,64.17
2023-01-23T20:14:34.125Z,65.85
2023-01-23T20:16:11.314Z,64.28
2023-01-23T20:17:43.678Z,67.90
2023-01-23T20:19:18.617Z,66.35
2023-01-23T20:20:51.978Z,66.82
2023-01-23T20:22:25.491Z,61.70
2023-01-23T20:23:58.972Z,66.50
2023-01-23T20:25:32.345Z,66.60
2023-01-23T20:27:05.703Z,68.70
2023-01-23T20:28:40.435Z,63.37
2023-01-23T20:30:15.204Z,61.17
2023-01-23T20:31:48.602Z,61.35
2023-01-23T20:33:22.192Z,65.05
2023-01-23T20:34:56.289Z,63.08
2023-01-23T20:36:29.880Z,61.77
2023-01-23T20:38:03.224Z,64.77
2023-01-23T20:39:36.658Z,64.13
2023-01-23T20:41:10.727Z,59.97
2023-01-23T20:42:44.134Z,65.30
2023-01-23T20:44:18.875Z,66.88
2023-01-23T20:45:52.856Z,63.28
2023-01-23T20:47:26.288Z,63.50
2023-01-23T20:49:01.574Z,64.23
2023-01-23T20:50:34.953Z,65.83
2023-01-23T20:52:26.105Z,57.73
2023-01-23T20:54:00.072Z,63.20
2023-01-23T20:55:33.506Z,61.90
2023-01-23T20:57:07.773Z,58.20
2023-01-23T20:58:59.534Z,59.67
2023-01-23T21:00:34.248Z,67.18
2023-01-23T21:02:27.104Z,65.37
2023-01-23T21:04:00.570Z,64.72
2023-01-23T21:05:33.976Z,69.90
2023-01-23T21:07:07.370Z,71.28
2023-01-23T21:08:40.980Z,66.43
2023-01-23T21:10:14.322Z,62.17
2023-01-23T21:11:49.734Z,63.30
2023-01-23T21:13:23.128Z,67.82
2023-01-23T21:14:56.470Z,63.97